Terminal Aerodrome Forecast
Issued by NWS Buffalo, NY

Home | Current Version | Previous Version | Text Only | Print | Product List | Glossary On
Versions: 1 2 3 4 5 6 7 8 9 10 11 12 13 14 15 16 17 18 19 20 21 22 23 24 25 26 27 28 29 30 31 32 33 34
211
FTUS41 KBUF 131728
TAFROC
TAF
KROC 131728Z 1318/1418 30018G28KT 1SM -SN BLSN OVC025
     FM132200 31018G25KT 2SM -SHSN BLSN OVC025
     FM140200 32014G22KT 1SM -SN BLSN OVC015
     FM140600 33012KT 2SM -SHSN OVC025
     FM141100 29009KT 4SM -SHSN OVC025
     FM141500 29008KT P6SM VCSH OVC035=

USA.gov is the U.S. government's official web portal to all federal, state and local government web resources and services.